Time;durP1;ratioP1;P1;durP2;ratioP2;P2;SDS_P1;SDS_P2;PMS_P1;PMS_P2;Temp;Humidity;BMP_temperature;BMP_pressure;BME280_temperature;BME280_humidity;BME280_pressure;Samples;Min_cycle;Max_cycle;Signal;HPM_P1;HPM_P2
2022/04/15 00:00:56;;;;;;;5.65;3.42;;;14.70;71.10;;;15.09;55.93;98159.81;5043166;28;20242;-52
2022/04/15 00:03:24;;;;;;;5.10;3.35;;;14.70;71.80;;;15.05;56.05;98161.19;5043024;28;20041;-49
2022/04/15 00:05:52;;;;;;;8.55;3.47;;;14.60;71.40;;;15.04;56.12;98156.81;5042704;28;20113;-54
2022/04/15 00:08:20;;;;;;;7.78;4.03;;;14.60;71.50;;;14.96;56.28;98166.56;5042051;28;20045;-52
2022/04/15 00:10:48;;;;;;;4.55;3.67;;;14.50;72.20;;;14.93;56.22;98161.56;5042954;28;20079;-51
2022/04/15 00:13:19;;;;;;;5.18;3.50;;;14.50;72.10;;;14.92;56.44;98162.56;5041643;28;20055;-51
2022/04/15 00:15:48;;;;;;;4.10;3.17;;;14.50;72.20;;;14.92;56.41;98161.75;5042941;28;20366;-53
2022/04/15 00:18:16;;;;;;;4.10;3.70;;;14.50;72.20;;;14.94;56.50;98165.91;5042951;28;20056;-53
2022/04/15 00:20:44;;;;;;;5.97;3.60;;;14.60;71.80;;;14.96;56.47;98171.09;5042776;28;20057;-51
2022/04/15 00:23:12;;;;;;;5.72;3.75;;;14.60;71.60;;;14.94;56.40;98167.75;5042761;28;20041;-52
2022/04/15 00:25:40;;;;;;;4.88;3.20;;;14.60;71.70;;;14.94;56.56;98171.28;5042599;28;20566;-50
2022/04/15 00:28:08;;;;;;;4.35;3.53;;;14.60;71.70;;;14.95;56.30;98164.09;5040776;28;20055;-50
2022/04/15 00:30:36;;;;;;;3.70;3.25;;;14.60;71.60;;;14.95;56.42;98170.28;5042631;28;20335;-53
2022/04/15 00:33:04;;;;;;;5.57;3.60;;;14.60;71.50;;;14.94;56.36;98159.72;5042652;28;20243;-51
2022/04/15 00:35:33;;;;;;;6.03;3.75;;;14.60;71.50;;;14.94;56.35;98163.22;5042092;28;20271;-51
2022/04/15 00:38:01;;;;;;;5.15;3.78;;;14.60;71.50;;;14.93;56.37;98169.63;5042478;28;20059;-48
2022/04/15 00:40:28;;;;;;;6.03;4.22;;;14.60;71.60;;;14.90;56.53;98167.28;5042628;28;20064;-47
2022/04/15 00:42:56;;;;;;;4.28;3.60;;;14.50;72.20;;;14.86;56.67;98167.81;5042737;28;20243;-47
2022/04/15 00:45:24;;;;;;;5.03;3.47;;;14.40;72.40;;;14.80;56.67;98165.84;5042177;28;20045;-50
2022/04/15 00:47:55;;;;;;;4.40;3.50;;;14.40;73.60;;;14.79;56.71;98167.66;5041193;28;20060;-51
2022/04/15 00:50:29;;;;;;;6.55;3.70;;;14.40;72.70;;;14.78;56.82;98160.66;5042288;28;20045;-49
2022/04/15 00:53:00;;;;;;;4.63;3.65;;;14.40;72.90;;;14.77;56.87;98158.97;5041120;28;20079;-45
2022/04/15 00:55:29;;;;;;;6.50;4.38;;;14.40;72.60;;;14.77;56.83;98161.66;5041064;28;20053;-46
2022/04/15 00:58:00;;;;;;;6.43;3.95;;;14.40;72.30;;;14.75;56.76;98159.16;5040830;28;20055;-45
2022/04/15 01:00:32;;;;;;;5.60;3.50;;;14.40;72.30;;;14.74;56.91;98160.16;5042271;28;20094;-46
2022/04/15 01:03:03;;;;;;;5.50;3.42;;;14.40;72.40;;;14.72;56.80;98154.16;5042727;28;20053;-47
2022/04/15 01:05:32;;;;;;;5.75;3.55;;;14.40;72.30;;;14.72;56.85;98156.81;5041676;28;20052;-49
2022/04/15 01:08:03;;;;;;;6.43;3.50;;;14.40;72.20;;;14.72;57.02;98164.03;5042195;28;20049;-47
2022/04/15 01:10:38;;;;;;;5.65;3.53;;;14.40;72.50;;;14.68;57.17;98168.09;5042113;28;20045;-45
2022/04/15 01:13:07;;;;;;;6.07;3.28;;;14.30;72.60;;;14.63;57.14;98165.06;5042625;28;20055;-45
2022/04/15 01:15:53;;;;;;;5.93;3.72;;;14.20;72.80;;;14.60;57.06;98162.72;5041169;28;20045;-46
2022/04/15 01:18:22;;;;;;;4.85;3.83;;;14.10;73.10;;;14.55;57.07;98157.88;5041688;28;20057;-47
2022/04/15 01:20:52;;;;;;;4.18;3.17;;;14.10;73.30;;;14.54;57.23;98162.41;5041981;28;20225;-46
2022/04/15 01:23:20;;;;;;;8.10;4.82;;;14.10;73.40;;;14.50;57.25;98170.94;5040801;28;20042;-48
2022/04/15 01:25:48;;;;;;;6.55;4.38;;;14.10;73.90;;;14.48;57.49;98165.78;5041550;28;20056;-47
2022/04/15 01:28:17;;;;;;;5.03;3.72;;;14.10;73.80;;;14.47;57.58;98172.13;5041753;28;20049;-46
2022/04/15 01:30:47;;;;;;;4.80;3.58;;;14.10;73.80;;;14.47;57.43;98174.81;5042011;28;20041;-46
2022/04/15 01:33:15;;;;;;;6.20;4.53;;;14.10;73.70;;;14.46;57.66;98170.47;5042021;28;20057;-47
2022/04/15 01:35:49;;;;;;;6.72;4.43;;;14.10;73.80;;;14.45;57.65;98171.47;5041329;28;20246;-45
2022/04/15 01:38:18;;;;;;;7.82;4.22;;;14.10;73.90;;;14.47;57.64;98172.13;5042157;28;20243;-44
2022/04/15 01:40:46;;;;;;;5.57;3.80;;;14.10;74.00;;;14.50;57.78;98178.97;5040623;28;20257;-46
2022/04/15 01:43:14;;;;;;;6.38;4.47;;;14.10;73.90;;;14.51;57.82;98178.81;5056992;28;20041;-46
2022/04/15 01:45:42;;;;;;;5.80;4.03;;;14.10;73.80;;;14.50;57.78;98176.31;5041396;28;20042;-49
2022/04/15 01:48:10;;;;;;;8.10;4.40;;;14.10;73.80;;;14.51;57.83;98173.47;5041766;28;20041;-48
2022/04/15 01:50:38;;;;;;;7.25;4.45;;;14.10;73.90;;;14.51;57.76;98178.00;5041956;28;20049;-46
2022/04/15 01:53:06;;;;;;;4.80;3.88;;;14.10;74.10;;;14.51;57.83;98178.81;5041302;28;20050;-45
2022/04/15 01:55:35;;;;;;;6.75;4.75;;;14.20;74.10;;;14.52;57.73;98172.47;5041346;28;20060;-47
2022/04/15 01:58:03;;;;;;;7.70;4.28;;;14.20;74.00;;;14.55;57.94;98180.13;5041398;28;20049;-45
2022/04/15 02:00:31;;;;;;;7.75;4.50;;;14.30;74.00;;;14.55;57.85;98172.09;5041702;28;20053;-50
2022/04/15 02:02:59;;;;;;;15.48;5.63;;;14.30;73.90;;;14.56;57.95;98176.50;5041480;28;20051;-48
2022/04/15 02:05:27;;;;;;;8.15;4.78;;;14.20;73.90;;;14.55;58.05;98182.00;5041878;28;20055;-45
2022/04/15 02:07:55;;;;;;;6.22;4.55;;;14.30;74.20;;;14.54;57.95;98173.13;5041834;28;20050;-46
2022/04/15 02:10:23;;;;;;;9.48;5.40;;;14.20;74.20;;;14.54;58.08;98178.47;5041511;28;20045;-47
2022/04/15 02:12:50;;;;;;;6.38;4.32;;;14.20;74.30;;;14.55;58.02;98173.94;5041514;28;20053;-45
2022/04/15 02:15:18;;;;;;;8.15;5.10;;;14.20;74.30;;;14.54;58.14;98173.13;5041202;28;20069;-49
2022/04/15 02:17:46;;;;;;;6.70;4.95;;;14.30;74.30;;;14.55;57.95;98174.78;5041149;28;20053;-45
2022/04/15 02:20:14;;;;;;;8.43;5.32;;;14.20;74.30;;;14.56;58.09;98172.97;5041498;28;20059;-49
2022/04/15 02:22:42;;;;;;;7.53;5.22;;;14.30;74.30;;;14.55;58.17;98180.13;5041573;28;20331;-46
2022/04/15 02:25:09;;;;;;;6.97;4.45;;;14.20;74.30;;;14.53;58.05;98184.00;5041221;28;20045;-46
2022/04/15 02:27:37;;;;;;;6.00;4.57;;;14.20;74.30;;;14.49;58.10;98183.50;5041127;28;20053;-48
2022/04/15 02:30:06;;;;;;;11.63;4.90;;;14.10;74.60;;;14.45;58.26;98182.19;5045019;28;20052;-48
2022/04/15 02:32:33;;;;;;;7.10;4.97;;;14.00;74.80;;;14.40;58.38;98187.22;5045171;28;20267;-47
2022/04/15 02:35:01;;;;;;;7.10;4.60;;;14.00;75.10;;;14.35;58.44;98192.28;5044692;28;20050;-46
2022/04/15 02:37:29;;;;;;;8.57;5.47;;;13.90;75.70;;;14.32;58.50;98187.25;5044846;28;20057;-45
2022/04/15 02:39:57;;;;;;;6.93;5.28;;;13.90;75.90;;;14.26;58.67;98199.47;5045062;28;20049;-46
2022/04/15 02:42:27;;;;;;;8.65;4.90;;;13.80;76.20;;;14.24;58.82;98200.66;5044720;28;20041;-46
2022/04/15 02:44:55;;;;;;;6.13;4.88;;;13.80;76.30;;;14.23;58.79;98197.16;5043534;28;20051;-45
2022/04/15 02:47:22;;;;;;;6.93;4.90;;;13.80;76.10;;;14.22;58.57;98194.66;5042929;28;20043;-46
2022/04/15 02:49:50;;;;;;;11.90;5.78;;;13.80;75.90;;;14.21;58.73;98190.28;5044439;28;20045;-48
2022/04/15 02:52:18;;;;;;;7.40;4.97;;;13.80;75.90;;;14.18;58.63;98188.81;5043422;28;20048;-47
2022/04/15 02:54:46;;;;;;;6.75;4.80;;;13.80;76.00;;;14.17;58.74;98192.47;5045101;28;20339;-45
2022/04/15 02:57:14;;;;;;;6.82;5.32;;;13.80;76.10;;;14.16;58.79;98190.81;5044010;28;20053;-48
2022/04/15 02:59:42;;;;;;;9.20;6.05;;;13.80;76.30;;;14.13;58.86;98185.78;5042968;28;20060;-45
2022/04/15 03:02:10;;;;;;;10.40;5.50;;;13.70;76.40;;;14.13;58.87;98186.66;5044414;28;20055;-47
2022/04/15 03:04:38;;;;;;;10.57;6.63;;;13.80;76.50;;;14.15;58.99;98187.31;5059640;28;20045;-45
2022/04/15 03:07:06;;;;;;;7.25;5.82;;;13.80;76.30;;;14.16;59.06;98190.81;5043875;28;20059;-44
2022/04/15 03:09:33;;;;;;;7.90;5.75;;;13.80;76.30;;;14.17;58.97;98184.44;5044606;28;20348;-48
2022/04/15 03:12:01;;;;;;;10.23;5.72;;;13.90;76.10;;;14.16;59.06;98188.97;5044118;28;20049;-49
2022/04/15 03:14:29;;;;;;;9.65;5.72;;;13.80;76.10;;;14.15;58.83;98191.81;5044140;28;20243;-45
2022/04/15 03:16:57;;;;;;;9.05;6.03;;;13.80;76.10;;;14.12;59.17;98181.44;5043689;28;20049;-47
2022/04/15 03:19:25;;;;;;;10.20;6.22;;;13.80;76.40;;;14.09;59.33;98184.47;5044552;28;20060;-46
2022/04/15 03:21:53;;;;;;;8.73;5.85;;;13.70;76.60;;;14.06;59.33;98182.97;5044017;28;20051;-46
2022/04/15 03:24:21;;;;;;;8.43;6.60;;;13.70;76.90;;;14.08;59.13;98190.84;5043588;28;20056;-45
2022/04/15 03:26:48;;;;;;;9.07;6.93;;;13.70;76.80;;;14.08;59.38;98183.63;5044052;28;20457;-44
2022/04/15 03:29:16;;;;;;;7.55;6.53;;;13.80;76.80;;;14.09;59.29;98190.63;5043525;28;20264;-45
2022/04/15 03:31:44;;;;;;;10.40;7.38;;;13.80;76.80;;;14.08;59.30;98190.84;5044123;28;20056;-47
2022/04/15 03:34:13;;;;;;;9.48;7.65;;;13.70;77.10;;;14.04;59.46;98195.69;5043715;28;20051;-45
2022/04/15 03:36:41;;;;;;;10.40;7.60;;;13.60;78.40;;;13.99;59.61;98181.97;5043241;28;20343;-46
2022/04/15 03:39:09;;;;;;;12.38;6.68;;;13.50;78.30;;;13.93;59.83;98185.31;5043307;28;20053;-46
2022/04/15 03:41:37;;;;;;;13.65;8.18;;;13.40;79.00;;;13.88;60.13;98193.88;5043669;28;20112;-45
2022/04/15 03:44:05;;;;;;;11.80;8.50;;;13.40;79.70;;;13.81;60.16;98198.22;5043454;28;20239;-48
2022/04/15 03:46:34;;;;;;;13.20;8.95;;;13.40;80.50;;;13.71;60.77;98193.03;5042304;28;20051;-47
2022/04/15 03:49:02;;;;;;;16.70;9.63;;;13.20;81.80;;;13.69;60.76;98195.06;5043308;28;20047;-48
2022/04/15 03:51:30;;;;;;;12.35;9.20;;;13.20;82.10;;;13.67;60.86;98193.56;5042501;28;20050;-50
2022/04/15 03:53:58;;;;;;;15.55;9.38;;;13.20;82.20;;;13.70;60.72;98195.88;5043599;28;20053;-45
2022/04/15 03:56:26;;;;;;;14.07;9.48;;;13.30;82.00;;;13.68;60.69;98192.53;5043432;28;20053;-48
2022/04/15 03:58:53;;;;;;;15.90;9.63;;;13.30;81.50;;;13.70;60.45;98207.41;5043243;28;20049;-48
2022/04/15 04:01:21;;;;;;;11.38;9.05;;;13.30;81.20;;;13.70;60.53;98198.56;5043079;28;20246;-48
2022/04/15 04:03:49;;;;;;;12.25;8.48;;;13.30;81.10;;;13.66;60.64;98191.88;5026130;28;20046;-46
2022/04/15 04:06:17;;;;;;;14.02;9.80;;;13.20;80.80;;;13.64;60.67;98201.91;5042806;28;20240;-47
2022/04/15 04:08:49;;;;;;;12.55;9.73;;;13.20;81.10;;;13.64;60.67;98199.22;5043578;28;20345;-48
2022/04/15 04:11:20;;;;;;;12.48;9.80;;;13.30;81.40;;;13.62;60.58;98201.25;5043124;28;20355;-46
2022/04/15 04:13:49;;;;;;;17.23;10.32;;;13.20;81.40;;;13.62;60.44;98202.06;5043282;28;20049;-46
2022/04/15 04:16:18;;;;;;;14.10;10.45;;;13.20;81.40;;;13.58;60.78;98200.72;5042359;28;20049;-48
2022/04/15 04:18:46;;;;;;;13.43;9.68;;;13.20;81.40;;;13.55;60.85;98204.59;5043013;28;20060;-49
2022/04/15 04:21:14;;;;;;;14.75;9.80;;;13.20;81.80;;;13.58;60.58;98208.75;5042761;28;20331;-44
2022/04/15 04:23:42;;;;;;;14.43;9.63;;;13.20;81.50;;;13.57;60.68;98212.41;5042895;28;20343;-48
2022/04/15 04:26:10;;;;;;;20.85;18.73;;;13.20;81.60;;;13.55;60.64;98212.59;5042178;28;20051;-47
2022/04/15 04:28:38;;;;;;;17.63;14.02;;;13.20;81.50;;;13.54;60.60;98210.09;5042916;28;20243;-49
2022/04/15 04:31:06;;;;;;;19.35;15.38;;;13.10;81.60;;;13.51;60.71;98210.41;5041607;28;20052;-49
2022/04/15 04:33:34;;;;;;;15.48;13.73;;;13.10;82.00;;;13.52;60.94;98215.59;5042591;28;20045;-47
2022/04/15 04:36:02;;;;;;;18.17;11.70;;;13.10;82.10;;;13.50;61.04;98216.78;5042047;28;20052;-47
2022/04/15 04:38:31;;;;;;;16.48;12.57;;;13.10;82.20;;;13.50;61.13;98219.47;5042696;28;20049;-46
2022/04/15 04:40:59;;;;;;;15.10;11.48;;;13.10;82.30;;;13.46;61.09;98221.63;5042740;28;20049;-46
2022/04/15 04:43:27;;;;;;;15.60;11.20;;;13.10;82.90;;;13.47;60.98;98222.44;5042428;28;20055;-50
2022/04/15 04:45:56;;;;;;;17.02;11.73;;;13.10;82.60;;;13.45;61.03;98224.44;5041887;28;20057;-46
2022/04/15 04:48:24;;;;;;;14.98;12.27;;;13.10;82.60;;;13.42;61.06;98228.31;5042009;28;20063;-45
2022/04/15 04:50:52;;;;;;;14.88;12.60;;;13.00;83.00;;;13.41;61.22;98225.78;5041535;28;20343;-44
2022/04/15 04:53:20;;;;;;;18.60;14.88;;;13.00;83.50;;;13.38;61.37;98230.47;5042703;28;20049;-45
2022/04/15 04:55:47;;;;;;;17.08;14.50;;;13.00;83.40;;;13.40;61.28;98232.97;5041868;28;20057;-45
2022/04/15 04:58:15;;;;;;;14.35;11.77;;;13.00;83.40;;;13.38;61.41;98229.63;5042212;28;20049;-46
2022/04/15 05:00:43;;;;;;;19.10;12.07;;;13.00;83.80;;;13.40;61.51;98230.31;5042210;28;20308;-44
2022/04/15 05:03:11;;;;;;;14.30;10.90;;;13.00;83.40;;;13.43;61.46;98239.84;5042305;28;20344;-47
2022/04/15 05:05:39;;;;;;;14.45;11.00;;;13.10;83.40;;;13.44;61.56;98241.53;5042134;28;20269;-45
2022/04/15 05:08:07;;;;;;;16.05;11.60;;;13.10;83.90;;;13.44;61.84;98242.34;5042224;28;20042;-47
2022/04/15 05:10:35;;;;;;;19.27;11.65;;;13.10;84.20;;;13.46;61.71;98242.19;5041845;28;20051;-44
2022/04/15 05:13:03;;;;;;;15.00;11.48;;;13.10;84.40;;;13.47;61.77;98246.53;5042034;28;20055;-44
2022/04/15 05:15:31;;;;;;;16.52;11.35;;;13.20;84.40;;;13.45;61.92;98243.19;5041611;28;20063;-49
2022/04/15 05:17:59;;;;;;;16.00;11.45;;;13.10;85.10;;;13.42;62.28;98252.38;5041962;28;20045;-45
2022/04/15 05:20:29;;;;;;;17.88;11.27;;;13.00;85.60;;;13.43;62.28;98256.72;5041833;28;20060;-46
2022/04/15 05:22:56;;;;;;;15.88;10.60;;;13.10;86.90;;;13.41;62.35;98260.56;5042071;28;20050;-46
2022/04/15 05:25:24;;;;;;;16.77;12.73;;;13.00;87.20;;;13.38;62.51;98259.06;5041439;28;20040;-47
2022/04/15 05:27:52;;;;;;;16.10;11.18;;;13.00;87.20;;;13.38;62.93;98261.72;5042127;28;20045;-47
2022/04/15 05:30:20;;;;;;;17.67;12.07;;;13.00;88.20;;;13.39;62.69;98268.75;5042374;28;20278;-45
2022/04/15 05:32:48;;;;;;;15.52;11.13;;;13.00;87.50;;;13.43;62.91;98269.25;5041858;28;20343;-48
2022/04/15 05:35:16;;;;;;;19.15;11.60;;;13.10;87.30;;;13.42;62.78;98267.59;5040935;28;20265;-46
2022/04/15 05:37:44;;;;;;;16.27;11.65;;;13.10;88.40;;;13.38;63.04;98270.59;5041377;28;20056;-45
2022/04/15 05:40:11;;;;;;;16.02;11.43;;;13.10;88.00;;;13.39;63.54;98276.75;5041785;28;20041;-48
2022/04/15 05:42:39;;;;;;;16.55;12.60;;;13.10;88.40;;;13.39;63.43;98269.56;5041961;28;20079;-48
2022/04/15 05:45:08;;;;;;;18.60;12.18;;;13.10;88.30;;;13.40;63.37;98273.09;5041644;28;20037;-48
2022/04/15 05:47:37;;;;;;;19.80;12.50;;;13.10;88.50;;;13.50;63.36;98272.94;5040769;28;20050;-47
2022/04/15 05:50:06;;;;;;;15.40;11.15;;;13.30;88.10;;;13.55;63.08;98283.97;5042138;28;20053;-45
2022/04/15 05:52:34;;;;;;;21.30;11.77;;;13.30;87.50;;;13.56;63.45;98280.31;5042035;28;20056;-47
2022/04/15 05:55:03;;;;;;;17.20;12.52;;;13.40;87.10;;;13.51;63.35;98288.84;5040633;28;20049;-48
2022/04/15 05:57:31;;;;;;;17.48;11.57;;;13.30;87.70;;;13.50;63.45;98289.00;5041170;28;20248;-47
2022/04/15 05:59:58;;;;;;;17.23;11.60;;;13.20;88.20;;;13.51;63.51;98291.53;5041548;28;20055;-47
2022/04/15 06:02:26;;;;;;;21.38;12.60;;;13.30;88.50;;;13.38;64.60;98291.16;5043460;28;20047;-45
2022/04/15 06:04:54;;;;;;;15.43;11.75;;;13.20;89.30;;;13.46;63.73;98290.34;5045321;28;20071;-47
2022/04/15 06:07:22;;;;;;;17.13;13.18;;;13.20;89.20;;;13.54;63.52;98301.03;5044919;28;20052;-47
2022/04/15 06:09:50;;;;;;;19.52;12.90;;;13.30;88.80;;;13.46;64.18;98301.03;5045493;28;20071;-49
2022/04/15 06:12:21;;;;;;;19.77;12.85;;;13.30;88.60;;;13.53;64.03;98302.88;5044252;28;20049;-48
2022/04/15 06:14:49;;;;;;;19.70;12.25;;;13.40;88.40;;;13.62;63.64;98303.72;5046059;28;20059;-46
2022/04/15 06:17:21;;;;;;;16.92;12.13;;;13.40;88.00;;;13.61;63.57;98306.56;5044656;28;20381;-47
2022/04/15 06:19:49;;;;;;;19.92;12.00;;;13.50;87.60;;;13.62;63.69;98298.38;5045368;28;20053;-48
2022/04/15 06:22:17;;;;;;;16.23;12.32;;;13.50;87.50;;;13.72;63.30;98306.25;5044876;28;20053;-46
2022/04/15 06:24:45;;;;;;;21.00;13.65;;;13.50;87.20;;;13.66;63.64;98306.91;5045014;28;20343;-45
2022/04/15 06:27:13;;;;;;;14.77;11.60;;;13.50;87.30;;;13.73;63.52;98305.25;5044679;28;20107;-47
2022/04/15 06:29:40;;;;;;;17.45;12.32;;;13.60;87.30;;;13.68;63.75;98307.59;5043777;28;20053;-46
2022/04/15 06:32:08;;;;;;;18.95;11.80;;;13.60;87.00;;;13.61;64.20;98302.06;5044951;28;20237;-44
2022/04/15 06:34:36;;;;;;;19.75;13.77;;;13.50;87.40;;;13.69;63.73;98301.25;5045102;28;20243;-46
2022/04/15 06:37:04;;;;;;;17.25;13.23;;;13.60;87.60;;;13.60;64.24;98311.09;5044194;28;20056;-44
2022/04/15 06:39:34;;;;;;;19.48;13.05;;;13.50;87.80;;;13.59;64.29;98312.94;5044736;28;20057;-44
2022/04/15 06:42:02;;;;;;;18.85;12.15;;;13.50;88.30;;;13.70;64.01;98311.75;5044739;28;20045;-46
2022/04/15 06:44:29;;;;;;;17.13;12.77;;;13.50;88.10;;;13.73;64.17;98316.78;5044592;28;20052;-46
2022/04/15 06:46:57;;;;;;;17.73;12.02;;;13.60;87.80;;;13.81;63.92;98312.47;5043292;28;20240;-44
2022/04/15 06:49:25;;;;;;;16.48;11.57;;;13.70;87.60;;;13.94;63.67;98310.97;5044581;28;20045;-46
2022/04/15 06:51:53;;;;;;;15.13;12.43;;;13.80;86.70;;;13.94;63.95;98315.50;5044488;28;20045;-45
2022/04/15 06:54:21;;;;;;;17.38;13.10;;;13.90;86.60;;;14.06;63.53;98318.69;5044622;28;20234;-48
2022/04/15 06:56:48;;;;;;;20.08;12.15;;;14.00;86.10;;;13.93;63.96;98314.63;5044511;28;20071;-46
2022/04/15 06:59:16;;;;;;;17.45;11.93;;;13.90;87.00;;;13.84;64.27;98318.34;5044733;28;20053;-47
2022/04/15 07:01:44;;;;;;;19.88;12.52;;;13.80;86.80;;;13.95;63.95;98319.81;5044343;28;20059;-45
2022/04/15 07:04:12;;;;;;;14.95;11.80;;;13.80;87.30;;;14.04;63.94;98318.84;5044295;28;20049;-47
2022/04/15 07:06:40;;;;;;;17.90;12.50;;;14.00;87.00;;;14.08;63.69;98322.03;5043492;28;20044;-45
2022/04/15 07:09:08;;;;;;;19.02;13.68;;;14.00;85.40;;;14.03;63.22;98322.50;5044327;28;20045;-45
2022/04/15 07:11:36;;;;;;;16.85;12.98;;;14.00;84.00;;;13.89;63.42;98320.50;5044229;28;20343;-46
2022/04/15 07:14:05;;;;;;;20.38;13.85;;;13.90;84.70;;;13.96;63.67;98316.16;5043581;28;20045;-45
2022/04/15 07:16:34;;;;;;;18.27;13.43;;;13.90;85.30;;;14.08;63.31;98322.03;5043806;28;20060;-47
2022/04/15 07:19:07;;;;;;;19.27;13.00;;;14.00;84.50;;;14.18;63.22;98326.19;5044083;28;20049;-46
2022/04/15 07:21:39;;;;;;;16.38;13.10;;;14.20;84.10;;;14.24;62.92;98324.69;5043976;28;20053;-49
2022/04/15 07:24:07;;;;;;;18.15;12.00;;;14.20;83.30;;;14.33;62.63;98315.66;5044072;28;20053;-45
2022/04/15 07:26:35;;;;;;;18.67;13.60;;;14.30;83.00;;;14.33;62.33;98318.31;5043286;28;20045;-48
2022/04/15 07:29:04;;;;;;;18.55;13.07;;;14.30;81.60;;;14.37;62.34;98322.34;5043675;28;20045;-45
2022/04/15 07:31:33;;;;;;;18.88;12.63;;;14.30;82.20;;;14.35;62.73;98323.53;5042792;28;20049;-46
2022/04/15 07:34:01;;;;;;;17.00;13.20;;;14.30;82.20;;;14.48;62.46;98323.00;5043600;28;20045;-46
2022/04/15 07:39:09;;;;;;;17.88;14.40;;;14.60;81.40;;;14.69;62.02;98330.53;5042739;28;20239;-46
2022/04/15 07:41:38;;;;;;;19.63;13.98;;;14.70;80.50;;;14.77;61.75;98331.34;5042886;28;20041;-46
2022/04/15 07:44:10;;;;;;;18.80;13.27;;;14.80;79.80;;;14.86;61.77;98332.16;5043441;28;20050;-45
2022/04/15 07:46:40;;;;;;;17.85;13.43;;;14.90;79.70;;;14.95;61.52;98327.63;5042990;28;20050;-46
2022/04/15 07:49:08;;;;;;;18.55;13.55;;;15.00;78.80;;;15.04;61.21;98328.41;5026198;28;20059;-47
2022/04/15 07:51:37;;;;;;;21.23;14.88;;;15.10;78.30;;;15.04;60.50;98325.75;5043260;28;20353;-45
2022/04/15 07:54:07;;;;;;;19.42;14.63;;;15.10;76.50;;;15.10;60.22;98323.22;5043242;28;20045;-45
2022/04/15 07:56:35;;;;;;;18.70;15.20;;;15.20;75.40;;;15.07;58.73;98328.09;5043282;28;20055;-45
2022/04/15 07:59:04;;;;;;;22.45;14.85;;;15.10;70.60;;;15.04;57.74;98328.41;5043122;28;20059;-45
2022/04/15 08:01:32;;;;;;;20.33;15.50;;;15.10;69.30;;;15.06;58.12;98327.25;5059069;28;20053;-46
2022/04/15 08:04:00;;;;;;;19.92;15.07;;;15.00;71.20;;;15.11;58.32;98327.56;5042892;28;20053;-47
2022/04/15 08:06:29;;;;;;;17.60;13.98;;;15.20;71.40;;;15.18;58.39;98324.16;5042443;28;20248;-48
2022/04/15 08:08:58;;;;;;;17.38;14.07;;;15.20;72.60;;;15.20;58.17;98333.75;5043024;28;20049;-48
2022/04/15 08:11:27;;;;;;;18.60;14.80;;;15.20;71.00;;;15.19;56.67;98336.59;5042939;28;20049;-46
2022/04/15 08:13:56;;;;;;;17.75;12.88;;;15.30;67.70;;;15.28;57.61;98328.34;5043840;28;20057;-46
2022/04/15 08:16:25;;;;;;;15.60;13.20;;;15.30;70.80;;;15.28;56.86;98330.19;5041457;28;20071;-45
2022/04/15 08:18:55;;;;;;;15.05;12.10;;;15.40;69.20;;;15.33;56.72;98336.69;5042834;28;20057;-46
2022/04/15 08:21:23;;;;;;;16.02;12.65;;;15.40;69.60;;;15.45;57.13;98336.28;5042769;28;20344;-44
2022/04/15 08:23:51;;;;;;;16.25;12.93;;;15.60;70.10;;;15.45;56.72;98339.84;5042725;28;20373;-48
2022/04/15 08:26:19;;;;;;;16.05;13.63;;;15.60;69.10;;;15.52;56.67;98343.47;5042248;28;20045;-46
2022/04/15 08:28:47;;;;;;;18.75;13.40;;;15.70;69.00;;;15.59;56.76;98340.94;5042641;28;20064;-46
2022/04/15 08:31:15;;;;;;;18.40;14.60;;;15.70;69.50;;;15.65;56.71;98336.69;5042644;28;20056;-48
2022/04/15 08:33:43;;;;;;;16.40;13.65;;;15.80;69.50;;;15.71;56.70;98338.69;5041230;28;20045;-47
2022/04/15 08:36:11;;;;;;;18.30;13.60;;;15.80;69.50;;;15.74;56.28;98341.03;5041559;28;20053;-45
2022/04/15 08:38:38;;;;;;;15.35;13.70;;;15.90;67.60;;;15.60;55.57;98342.59;5041111;28;20351;-46
2022/04/15 08:41:14;;;;;;;17.80;14.75;;;15.70;66.90;;;15.62;54.81;98340.56;5042899;28;20053;-46
2022/04/15 08:43:42;;;;;;;18.08;14.85;;;15.80;66.00;;;15.64;55.10;98346.59;5042192;28;20051;-44
2022/04/15 08:46:12;;;;;;;19.25;14.70;;;15.80;66.20;;;15.72;55.51;98345.69;5040413;28;20041;-45
2022/04/15 08:48:40;;;;;;;17.92;14.05;;;15.90;67.30;;;15.75;55.28;98348.91;5042384;28;20239;-48
2022/04/15 08:51:09;;;;;;;16.73;14.15;;;15.90;66.70;;;15.79;55.65;98349.38;5041193;28;20041;-47
2022/04/15 08:53:38;;;;;;;17.50;14.95;;;16.00;67.10;;;15.83;55.73;98356.06;5042200;28;20047;-45
2022/04/15 08:56:07;;;;;;;17.88;14.80;;;16.00;67.40;;;15.89;55.37;98346.47;5041752;28;20057;-46
2022/04/15 08:58:35;;;;;;;19.10;13.73;;;16.10;65.90;;;15.98;55.72;98353.47;5041940;28;20049;-46
2022/04/15 09:01:04;;;;;;;16.13;14.00;;;16.20;67.70;;;16.16;55.82;98349.66;5042317;28;20057;-47
2022/04/15 09:03:33;;;;;;;17.88;13.90;;;16.40;67.50;;;16.24;55.12;98358.47;5041082;28;20131;-48
2022/04/15 09:06:00;;;;;;;17.35;14.13;;;16.60;64.70;;;16.31;54.93;98361.28;5041468;28;20049;-46
2022/04/15 09:08:29;;;;;;;15.82;13.55;;;16.60;66.00;;;16.34;53.53;98358.22;5041977;28;20056;-46
2022/04/15 09:10:59;;;;;;;16.75;14.70;;;16.70;62.60;;;16.36;54.04;98364.25;5040809;28;20052;-45
2022/04/15 09:13:34;;;;;;;15.52;13.43;;;16.60;63.40;;;16.42;53.70;98365.38;5042184;28;20041;-45
2022/04/15 09:16:02;;;;;;;18.92;14.15;;;16.70;63.60;;;16.51;53.92;98366.97;5041492;28;20049;-47
2022/04/15 09:18:34;;;;;;;16.05;13.80;;;16.80;64.60;;;16.59;54.23;98374.97;5041749;28;20052;-47
2022/04/15 09:21:24;;;;;;;16.02;13.35;;;16.80;64.70;;;16.56;53.86;98367.28;5042612;28;20061;-47
2022/04/15 09:23:55;;;;;;;17.13;14.70;;;16.80;63.70;;;16.55;53.56;98368.28;5042271;28;20377;-45
2022/04/15 09:26:24;;;;;;;15.82;13.27;;;16.70;64.20;;;16.56;53.61;98369.97;5040102;28;20049;-47
2022/04/15 09:28:53;;;;;;;17.42;14.13;;;16.60;64.60;;;16.58;53.31;98367.09;5041549;28;20049;-49
2022/04/15 09:31:23;;;;;;;15.30;13.20;;;16.70;64.20;;;16.61;53.37;98369.41;5041840;28;20049;-46
2022/04/15 09:33:57;;;;;;;18.02;14.77;;;16.70;64.30;;;16.62;53.29;98363.88;5042101;28;20054;-49
2022/04/15 09:36:36;;;;;;;14.48;12.90;;;16.70;63.80;;;16.71;53.30;98359.22;5040571;28;20055;-48
2022/04/15 09:39:14;;;;;;;17.38;13.07;;;16.80;63.00;;;16.82;52.57;98364.19;5045873;28;20051;-48
2022/04/15 09:41:54;;;;;;;18.33;13.40;;;17.00;63.30;;;16.95;53.08;98365.44;5045593;28;20116;-48
2022/04/15 09:44:31;;;;;;;16.65;12.98;;;17.20;62.00;;;17.06;53.02;98360.44;5045655;28;20045;-46
2022/04/15 09:47:05;;;;;;;14.05;12.00;;;17.40;62.70;;;17.16;52.31;98364.69;5044454;28;20049;-46
2022/04/15 09:49:36;;;;;;;17.58;13.45;;;17.50;61.10;;;17.14;52.65;98364.88;5044406;28;20045;-46
2022/04/15 09:52:06;;;;;;;17.48;13.38;;;17.40;62.20;;;17.16;52.19;98365.53;5045683;28;20052;-49
2022/04/15 09:54:36;;;;;;;17.33;12.98;;;17.40;61.80;;;17.19;52.12;98356.25;5045850;28;20041;-51
2022/04/15 09:57:06;;;;;;;17.02;13.13;;;17.40;62.00;;;17.26;52.15;98358.00;5043973;28;20352;-52
2022/04/15 09:59:34;;;;;;;15.68;13.35;;;17.50;61.80;;;17.34;52.27;98359.75;5044361;28;20059;-50
2022/04/15 10:02:05;;;;;;;16.08;13.18;;;17.70;61.10;;;17.28;51.57;98350.56;5044241;28;20055;-50
2022/04/15 10:04:34;;;;;;;17.42;12.77;;;17.60;60.40;;;17.28;51.50;98361.34;5044437;28;20343;-51
2022/04/15 10:07:07;;;;;;;15.25;13.00;;;17.50;60.80;;;17.25;51.14;98360.88;5043393;28;20045;-54
2022/04/15 10:09:38;;;;;;;15.65;12.52;;;17.40;60.60;;;17.30;51.34;98361.16;5045147;28;20247;-52
2022/04/15 10:12:07;;;;;;;14.57;12.60;;;17.50;61.20;;;17.35;51.36;98349.81;5045298;28;20051;-50
2022/04/15 10:14:35;;;;;;;16.48;12.73;;;17.60;60.70;;;17.35;50.78;98349.81;5044119;28;20247;-50
2022/04/15 10:17:04;;;;;;;16.58;12.15;;;17.60;59.70;;;17.45;50.89;98353.91;5043800;28;20058;-50
2022/04/15 10:19:34;;;;;;;14.43;11.93;;;17.70;59.90;;;17.49;50.32;98357.06;5043622;28;20053;-52